sensor_id;sensor_type;location;lat;lon;timestamp;temperature;humidity
15386;DHT22;7791;47.246;9.648;2022-07-05T00:01:34;17.50;99.90
15386;DHT22;7791;47.246;9.648;2022-07-05T00:04:00;17.50;99.90
15386;DHT22;7791;47.246;9.648;2022-07-05T00:06:28;17.50;99.90
15386;DHT22;7791;47.246;9.648;2022-07-05T00:08:54;17.50;99.90
15386;DHT22;7791;47.246;9.648;2022-07-05T00:11:19;17.40;99.90
15386;DHT22;7791;47.246;9.648;2022-07-05T00:16:51;17.50;99.90
15386;DHT22;7791;47.246;9.648;2022-07-05T00:19:17;17.50;99.90
15386;DHT22;7791;47.246;9.648;2022-07-05T00:21:44;17.50;99.90
15386;DHT22;7791;47.246;9.648;2022-07-05T00:24:10;17.50;99.90
15386;DHT22;7791;47.246;9.648;2022-07-05T00:26:36;17.50;99.90
15386;DHT22;7791;47.246;9.648;2022-07-05T00:29:01;17.60;99.90
15386;DHT22;7791;47.246;9.648;2022-07-05T00:31:27;17.60;99.90
15386;DHT22;7791;47.246;9.648;2022-07-05T00:33:53;17.60;99.90
15386;DHT22;7791;47.246;9.648;2022-07-05T00:36:19;17.60;99.90
15386;DHT22;7791;47.246;9.648;2022-07-05T00:38:46;17.50;99.90
15386;DHT22;7791;47.246;9.648;2022-07-05T00:41:12;17.60;99.90
15386;DHT22;7791;47.246;9.648;2022-07-05T00:43:49;17.60;99.90
15386;DHT22;7791;47.246;9.648;2022-07-05T00:46:37;17.60;99.90
15386;DHT22;7791;47.246;9.648;2022-07-05T00:49:05;17.50;99.90
15386;DHT22;7791;47.246;9.648;2022-07-05T00:51:33;17.50;99.90
15386;DHT22;7791;47.246;9.648;2022-07-05T00:54:01;17.50;99.90
15386;DHT22;7791;47.246;9.648;2022-07-05T00:56:27;17.50;99.90
15386;DHT22;7791;47.246;9.648;2022-07-05T00:58:54;17.60;99.90
15386;DHT22;7791;47.246;9.648;2022-07-05T01:01:31;17.60;99.90
15386;DHT22;7791;47.246;9.648;2022-07-05T01:03:57;17.70;99.90
15386;DHT22;7791;47.246;9.648;2022-07-05T01:06:23;17.60;99.90
15386;DHT22;7791;47.246;9.648;2022-07-05T01:08:49;17.60;99.90
15386;DHT22;7791;47.246;9.648;2022-07-05T01:11:16;17.60;99.90
15386;DHT22;7791;47.246;9.648;2022-07-05T01:13:42;17.50;99.90
15386;DHT22;7791;47.246;9.648;2022-07-05T01:16:10;17.50;99.90
15386;DHT22;7791;47.246;9.648;2022-07-05T01:18:36;17.50;99.90
15386;DHT22;7791;47.246;9.648;2022-07-05T01:21:02;17.50;99.90
15386;DHT22;7791;47.246;9.648;2022-07-05T01:23:31;17.50;99.90
15386;DHT22;7791;47.246;9.648;2022-07-05T01:25:59;17.60;99.90
15386;DHT22;7791;47.246;9.648;2022-07-05T01:28:25;17.50;99.90
15386;DHT22;7791;47.246;9.648;2022-07-05T01:34:03;17.50;99.90
15386;DHT22;7791;47.246;9.648;2022-07-05T01:36:29;17.60;99.90
15386;DHT22;7791;47.246;9.648;2022-07-05T01:38:57;17.60;99.90
15386;DHT22;7791;47.246;9.648;2022-07-05T01:41:22;17.60;99.90
15386;DHT22;7791;47.246;9.648;2022-07-05T01:43:48;17.60;99.90
15386;DHT22;7791;47.246;9.648;2022-07-05T01:46:15;17.50;99.90
15386;DHT22;7791;47.246;9.648;2022-07-05T01:48:42;17.50;99.90
15386;DHT22;7791;47.246;9.648;2022-07-05T01:51:13;17.50;99.90
15386;DHT22;7791;47.246;9.648;2022-07-05T01:53:43;17.50;99.90
15386;DHT22;7791;47.246;9.648;2022-07-05T01:56:11;17.50;99.90
15386;DHT22;7791;47.246;9.648;2022-07-05T01:58:37;17.40;99.90
15386;DHT22;7791;47.246;9.648;2022-07-05T02:10:26;17.50;99.90
15386;DHT22;7791;47.246;9.648;2022-07-05T02:12:53;17.50;99.90
15386;DHT22;7791;47.246;9.648;2022-07-05T02:15:20;17.50;99.90
15386;DHT22;7791;47.246;9.648;2022-07-05T02:17:46;17.50;99.90
15386;DHT22;7791;47.246;9.648;2022-07-05T02:20:12;17.50;99.90
15386;DHT22;7791;47.246;9.648;2022-07-05T02:22:38;17.50;99.90
15386;DHT22;7791;47.246;9.648;2022-07-05T02:25:04;17.60;99.90
15386;DHT22;7791;47.246;9.648;2022-07-05T02:27:30;17.60;99.90
15386;DHT22;7791;47.246;9.648;2022-07-05T02:29:57;17.60;99.90
15386;DHT22;7791;47.246;9.648;2022-07-05T02:33:00;17.60;99.90
15386;DHT22;7791;47.246;9.648;2022-07-05T02:35:26;17.60;99.90
15386;DHT22;7791;47.246;9.648;2022-07-05T02:37:52;17.50;99.90
15386;DHT22;7791;47.246;9.648;2022-07-05T02:40:17;17.50;99.90
15386;DHT22;7791;47.246;9.648;2022-07-05T02:42:43;17.40;99.90
15386;DHT22;7791;47.246;9.648;2022-07-05T02:45:10;17.40;99.90
15386;DHT22;7791;47.246;9.648;2022-07-05T02:47:36;17.40;99.90
15386;DHT22;7791;47.246;9.648;2022-07-05T02:50:03;17.50;99.90
15386;DHT22;7791;47.246;9.648;2022-07-05T02:52:29;17.40;99.90
15386;DHT22;7791;47.246;9.648;2022-07-05T02:54:55;17.40;99.90
15386;DHT22;7791;47.246;9.648;2022-07-05T02:57:21;17.40;99.90
15386;DHT22;7791;47.246;9.648;2022-07-05T02:59:46;17.50;99.90
15386;DHT22;7791;47.246;9.648;2022-07-05T03:05:31;17.50;99.90
15386;DHT22;7791;47.246;9.648;2022-07-05T03:07:57;17.50;99.90
15386;DHT22;7791;47.246;9.648;2022-07-05T03:10:23;17.50;99.90
15386;DHT22;7791;47.246;9.648;2022-07-05T03:12:49;17.60;99.90
15386;DHT22;7791;47.246;9.648;2022-07-05T03:15:14;17.60;99.90
15386;DHT22;7791;47.246;9.648;2022-07-05T03:17:52;17.60;99.90
15386;DHT22;7791;47.246;9.648;2022-07-05T03:20:18;17.50;99.90
15386;DHT22;7791;47.246;9.648;2022-07-05T03:22:45;17.50;99.90
15386;DHT22;7791;47.246;9.648;2022-07-05T03:25:11;17.50;99.90
15386;DHT22;7791;47.246;9.648;2022-07-05T03:27:37;17.60;99.90
15386;DHT22;7791;47.246;9.648;2022-07-05T03:30:03;17.70;99.90
15386;DHT22;7791;47.246;9.648;2022-07-05T03:32:29;17.60;99.90
15386;DHT22;7791;47.246;9.648;2022-07-05T03:34:55;17.70;99.90
15386;DHT22;7791;47.246;9.648;2022-07-05T03:37:21;17.70;99.90
15386;DHT22;7791;47.246;9.648;2022-07-05T03:39:48;17.40;99.90
15386;DHT22;7791;47.246;9.648;2022-07-05T03:42:13;17.20;99.90
15386;DHT22;7791;47.246;9.648;2022-07-05T03:44:39;17.30;99.90
15386;DHT22;7791;47.246;9.648;2022-07-05T03:47:14;17.40;99.90
15386;DHT22;7791;47.246;9.648;2022-07-05T03:49:40;17.50;99.90
15386;DHT22;7791;47.246;9.648;2022-07-05T03:52:06;17.60;99.90
15386;DHT22;7791;47.246;9.648;2022-07-05T03:54:32;17.70;99.90
15386;DHT22;7791;47.246;9.648;2022-07-05T03:56:59;17.70;99.90
15386;DHT22;7791;47.246;9.648;2022-07-05T03:59:25;17.80;99.90
15386;DHT22;7791;47.246;9.648;2022-07-05T04:01:53;17.70;99.90
15386;DHT22;7791;47.246;9.648;2022-07-05T04:04:18;17.70;99.90
15386;DHT22;7791;47.246;9.648;2022-07-05T04:06:44;17.70;99.90
15386;DHT22;7791;47.246;9.648;2022-07-05T04:09:10;17.70;99.90
15386;DHT22;7791;47.246;9.648;2022-07-05T04:11:36;17.70;99.90
15386;DHT22;7791;47.246;9.648;2022-07-05T04:14:04;17.50;99.90
15386;DHT22;7791;47.246;9.648;2022-07-05T04:16:30;17.40;99.90
15386;DHT22;7791;47.246;9.648;2022-07-05T04:18:56;17.30;99.90
15386;DHT22;7791;47.246;9.648;2022-07-05T04:21:22;17.40;99.90
15386;DHT22;7791;47.246;9.648;2022-07-05T04:23:48;17.50;99.90
15386;DHT22;7791;47.246;9.648;2022-07-05T04:26:14;17.60;99.90
15386;DHT22;7791;47.246;9.648;2022-07-05T04:28:39;17.50;99.90
15386;DHT22;7791;47.246;9.648;2022-07-05T04:31:08;17.50;99.90
15386;DHT22;7791;47.246;9.648;2022-07-05T04:33:33;17.40;99.90
15386;DHT22;7791;47.246;9.648;2022-07-05T04:35:59;17.40;99.90
15386;DHT22;7791;47.246;9.648;2022-07-05T04:38:25;17.40;99.90
15386;DHT22;7791;47.246;9.648;2022-07-05T04:40:51;17.40;99.90
15386;DHT22;7791;47.246;9.648;2022-07-05T04:43:17;17.40;99.90
15386;DHT22;7791;47.246;9.648;2022-07-05T04:45:43;17.50;99.90
15386;DHT22;7791;47.246;9.648;2022-07-05T04:48:10;17.50;99.90
15386;DHT22;7791;47.246;9.648;2022-07-05T04:50:36;17.50;99.90
15386;DHT22;7791;47.246;9.648;2022-07-05T04:53:02;17.50;99.90
15386;DHT22;7791;47.246;9.648;2022-07-05T04:55:28;17.30;99.90
15386;DHT22;7791;47.246;9.648;2022-07-05T04:57:54;17.30;99.90
15386;DHT22;7791;47.246;9.648;2022-07-05T05:00:20;17.20;99.90
15386;DHT22;7791;47.246;9.648;2022-07-05T05:05:49;17.30;99.90
15386;DHT22;7791;47.246;9.648;2022-07-05T05:08:16;17.30;99.90
15386;DHT22;7791;47.246;9.648;2022-07-05T05:10:41;17.40;99.90
15386;DHT22;7791;47.246;9.648;2022-07-05T05:13:07;17.40;99.90
15386;DHT22;7791;47.246;9.648;2022-07-05T05:15:33;17.40;99.90
15386;DHT22;7791;47.246;9.648;2022-07-05T05:17:59;17.30;99.90
15386;DHT22;7791;47.246;9.648;2022-07-05T05:20:24;17.30;99.90
15386;DHT22;7791;47.246;9.648;2022-07-05T05:22:52;17.40;99.90
15386;DHT22;7791;47.246;9.648;2022-07-05T05:25:18;17.40;99.90
15386;DHT22;7791;47.246;9.648;2022-07-05T05:27:46;17.50;99.90
15386;DHT22;7791;47.246;9.648;2022-07-05T05:30:13;17.50;99.90
15386;DHT22;7791;47.246;9.648;2022-07-05T05:32:39;17.60;99.90
15386;DHT22;7791;47.246;9.648;2022-07-05T05:35:14;17.70;99.90
15386;DHT22;7791;47.246;9.648;2022-07-05T05:37:47;17.80;99.90
15386;DHT22;7791;47.246;9.648;2022-07-05T05:40:15;17.80;99.90
15386;DHT22;7791;47.246;9.648;2022-07-05T05:42:41;17.90;99.90
15386;DHT22;7791;47.246;9.648;2022-07-05T05:45:07;18.00;99.90
15386;DHT22;7791;47.246;9.648;2022-07-05T05:47:33;18.00;99.90
15386;DHT22;7791;47.246;9.648;2022-07-05T05:50:00;18.20;99.90
15386;DHT22;7791;47.246;9.648;2022-07-05T05:52:26;18.40;99.90
15386;DHT22;7791;47.246;9.648;2022-07-05T05:54:53;18.50;99.90
15386;DHT22;7791;47.246;9.648;2022-07-05T05:57:20;18.70;99.90
15386;DHT22;7791;47.246;9.648;2022-07-05T05:59:46;18.80;99.90
15386;DHT22;7791;47.246;9.648;2022-07-05T06:02:12;19.00;99.90
15386;DHT22;7791;47.246;9.648;2022-07-05T06:04:40;19.20;99.90
15386;DHT22;7791;47.246;9.648;2022-07-05T06:07:06;19.40;99.90
15386;DHT22;7791;47.246;9.648;2022-07-05T06:09:32;19.50;99.90
15386;DHT22;7791;47.246;9.648;2022-07-05T06:11:58;19.60;99.90
15386;DHT22;7791;47.246;9.648;2022-07-05T06:14:25;19.70;99.90
15386;DHT22;7791;47.246;9.648;2022-07-05T06:16:51;19.60;99.90
15386;DHT22;7791;47.246;9.648;2022-07-05T06:19:16;19.50;99.90
15386;DHT22;7791;47.246;9.648;2022-07-05T06:21:42;19.50;99.90
15386;DHT22;7791;47.246;9.648;2022-07-05T06:24:08;19.40;99.90
15386;DHT22;7791;47.246;9.648;2022-07-05T06:26:34;19.30;99.90
15386;DHT22;7791;47.246;9.648;2022-07-05T06:28:59;19.30;99.90
15386;DHT22;7791;47.246;9.648;2022-07-05T06:31:27;19.30;99.90
15386;DHT22;7791;47.246;9.648;2022-07-05T06:33:55;19.30;99.90
15386;DHT22;7791;47.246;9.648;2022-07-05T06:36:21;19.30;99.90
15386;DHT22;7791;47.246;9.648;2022-07-05T06:38:47;19.40;99.90
15386;DHT22;7791;47.246;9.648;2022-07-05T06:41:12;19.40;99.90
15386;DHT22;7791;47.246;9.648;2022-07-05T06:43:39;19.40;99.90
15386;DHT22;7791;47.246;9.648;2022-07-05T06:46:05;19.30;99.90
15386;DHT22;7791;47.246;9.648;2022-07-05T06:48:33;19.30;99.90
15386;DHT22;7791;47.246;9.648;2022-07-05T06:50:59;19.10;99.90
15386;DHT22;7791;47.246;9.648;2022-07-05T06:53:24;19.10;99.90
15386;DHT22;7791;47.246;9.648;2022-07-05T06:55:50;19.10;99.90
15386;DHT22;7791;47.246;9.648;2022-07-05T06:58:16;19.20;99.90
15386;DHT22;7791;47.246;9.648;2022-07-05T07:00:43;19.30;99.90
15386;DHT22;7791;47.246;9.648;2022-07-05T07:03:09;19.40;99.90
15386;DHT22;7791;47.246;9.648;2022-07-05T07:05:36;19.50;99.90
15386;DHT22;7791;47.246;9.648;2022-07-05T07:08:02;19.60;99.90
15386;DHT22;7791;47.246;9.648;2022-07-05T07:10:28;19.70;99.90
15386;DHT22;7791;47.246;9.648;2022-07-05T07:12:54;19.90;99.90
15386;DHT22;7791;47.246;9.648;2022-07-05T07:15:20;20.00;99.90
15386;DHT22;7791;47.246;9.648;2022-07-05T07:17:46;19.80;99.90
15386;DHT22;7791;47.246;9.648;2022-07-05T07:20:27;20.00;99.90
15386;DHT22;7791;47.246;9.648;2022-07-05T07:22:55;20.10;99.90
15386;DHT22;7791;47.246;9.648;2022-07-05T07:25:21;20.20;99.90
15386;DHT22;7791;47.246;9.648;2022-07-05T07:27:48;20.40;99.90
15386;DHT22;7791;47.246;9.648;2022-07-05T07:30:15;20.40;99.90
15386;DHT22;7791;47.246;9.648;2022-07-05T07:32:44;20.40;99.90
15386;DHT22;7791;47.246;9.648;2022-07-05T07:38:14;20.70;99.90
15386;DHT22;7791;47.246;9.648;2022-07-05T07:40:41;20.80;99.90
15386;DHT22;7791;47.246;9.648;2022-07-05T07:43:07;20.60;99.90
15386;DHT22;7791;47.246;9.648;2022-07-05T07:45:33;21.00;99.90
15386;DHT22;7791;47.246;9.648;2022-07-05T07:47:59;21.20;99.90
15386;DHT22;7791;47.246;9.648;2022-07-05T07:50:25;21.40;99.90
15386;DHT22;7791;47.246;9.648;2022-07-05T07:52:54;21.70;99.90
15386;DHT22;7791;47.246;9.648;2022-07-05T07:55:21;22.10;99.90
15386;DHT22;7791;47.246;9.648;2022-07-05T07:57:47;22.40;99.90
15386;DHT22;7791;47.246;9.648;2022-07-05T08:00:14;22.50;99.90
15386;DHT22;7791;47.246;9.648;2022-07-05T08:02:39;22.70;99.90
15386;DHT22;7791;47.246;9.648;2022-07-05T08:05:06;22.70;99.90
15386;DHT22;7791;47.246;9.648;2022-07-05T08:10:56;22.50;99.90
15386;DHT22;7791;47.246;9.648;2022-07-05T08:13:22;22.50;99.90
15386;DHT22;7791;47.246;9.648;2022-07-05T08:15:48;22.60;99.90
15386;DHT22;7791;47.246;9.648;2022-07-05T08:18:15;22.80;99.90
15386;DHT22;7791;47.246;9.648;2022-07-05T08:21:05;23.00;99.90
15386;DHT22;7791;47.246;9.648;2022-07-05T08:23:31;23.50;99.90
15386;DHT22;7791;47.246;9.648;2022-07-05T08:25:58;23.70;99.90
15386;DHT22;7791;47.246;9.648;2022-07-05T08:28:25;24.20;99.90
15386;DHT22;7791;47.246;9.648;2022-07-05T08:30:51;24.70;99.90
15386;DHT22;7791;47.246;9.648;2022-07-05T08:33:16;25.20;99.90
15386;DHT22;7791;47.246;9.648;2022-07-05T08:35:42;25.60;99.90
15386;DHT22;7791;47.246;9.648;2022-07-05T08:38:09;25.50;99.90
15386;DHT22;7791;47.246;9.648;2022-07-05T08:40:37;25.10;99.90
15386;DHT22;7791;47.246;9.648;2022-07-05T08:43:06;24.80;99.90
15386;DHT22;7791;47.246;9.648;2022-07-05T08:45:34;24.40;99.90
15386;DHT22;7791;47.246;9.648;2022-07-05T08:48:01;24.10;99.90
15386;DHT22;7791;47.246;9.648;2022-07-05T08:50:28;24.00;99.90
15386;DHT22;7791;47.246;9.648;2022-07-05T08:52:56;24.00;99.90
15386;DHT22;7791;47.246;9.648;2022-07-05T08:55:23;24.00;99.90
15386;DHT22;7791;47.246;9.648;2022-07-05T08:57:49;24.10;99.90
15386;DHT22;7791;47.246;9.648;2022-07-05T09:00:17;24.10;99.90
15386;DHT22;7791;47.246;9.648;2022-07-05T09:02:43;24.00;99.90
15386;DHT22;7791;47.246;9.648;2022-07-05T09:05:12;24.20;99.90
15386;DHT22;7791;47.246;9.648;2022-07-05T09:10:24;24.60;99.90
15386;DHT22;7791;47.246;9.648;2022-07-05T09:12:51;25.20;99.90
15386;DHT22;7791;47.246;9.648;2022-07-05T09:15:18;25.70;99.90
15386;DHT22;7791;47.246;9.648;2022-07-05T09:17:44;26.50;99.90
15386;DHT22;7791;47.246;9.648;2022-07-05T09:20:11;27.50;99.90
15386;DHT22;7791;47.246;9.648;2022-07-05T09:22:49;28.00;99.90
15386;DHT22;7791;47.246;9.648;2022-07-05T09:25:17;28.50;99.90
15386;DHT22;7791;47.246;9.648;2022-07-05T09:27:51;29.40;99.90
15386;DHT22;7791;47.246;9.648;2022-07-05T09:30:27;29.70;99.90
15386;DHT22;7791;47.246;9.648;2022-07-05T09:33:04;30.00;99.90
15386;DHT22;7791;47.246;9.648;2022-07-05T09:35:31;30.30;99.90
15386;DHT22;7791;47.246;9.648;2022-07-05T09:37:57;30.20;99.90
15386;DHT22;7791;47.246;9.648;2022-07-05T09:40:22;30.20;99.90
15386;DHT22;7791;47.246;9.648;2022-07-05T09:42:48;30.30;99.90
15386;DHT22;7791;47.246;9.648;2022-07-05T09:45:21;30.70;99.90
15386;DHT22;7791;47.246;9.648;2022-07-05T09:47:49;31.40;99.90
15386;DHT22;7791;47.246;9.648;2022-07-05T09:50:15;31.00;99.90
15386;DHT22;7791;47.246;9.648;2022-07-05T09:52:58;31.50;99.90
15386;DHT22;7791;47.246;9.648;2022-07-05T09:55:24;32.20;99.90
15386;DHT22;7791;47.246;9.648;2022-07-05T09:57:50;33.00;99.70
15386;DHT22;7791;47.246;9.648;2022-07-05T10:00:18;34.40;98.80
15386;DHT22;7791;47.246;9.648;2022-07-05T10:02:45;35.50;96.40
15386;DHT22;7791;47.246;9.648;2022-07-05T10:05:14;35.60;95.10
15386;DHT22;7791;47.246;9.648;2022-07-05T10:07:41;35.30;95.40
15386;DHT22;7791;47.246;9.648;2022-07-05T10:10:08;34.20;96.10
15386;DHT22;7791;47.246;9.648;2022-07-05T10:12:36;34.50;95.40
15386;DHT22;7791;47.246;9.648;2022-07-05T10:15:03;34.60;92.60
15386;DHT22;7791;47.246;9.648;2022-07-05T10:17:30;34.90;93.00
15386;DHT22;7791;47.246;9.648;2022-07-05T10:19:59;35.30;92.40
15386;DHT22;7791;47.246;9.648;2022-07-05T10:22:28;34.90;91.60
15386;DHT22;7791;47.246;9.648;2022-07-05T10:24:56;35.50;90.50
15386;DHT22;7791;47.246;9.648;2022-07-05T10:27:27;34.20;91.00
15386;DHT22;7791;47.246;9.648;2022-07-05T10:29:56;33.90;93.00
15386;DHT22;7791;47.246;9.648;2022-07-05T10:32:23;33.20;91.50
15386;DHT22;7791;47.246;9.648;2022-07-05T10:34:50;33.90;92.30
15386;DHT22;7791;47.246;9.648;2022-07-05T10:37:17;34.40;92.80
15386;DHT22;7791;47.246;9.648;2022-07-05T10:39:45;34.50;91.90
15386;DHT22;7791;47.246;9.648;2022-07-05T10:42:10;34.70;91.30
15386;DHT22;7791;47.246;9.648;2022-07-05T10:44:37;35.50;89.10
15386;DHT22;7791;47.246;9.648;2022-07-05T10:47:09;36.10;89.00
15386;DHT22;7791;47.246;9.648;2022-07-05T10:49:36;35.90;86.80
15386;DHT22;7791;47.246;9.648;2022-07-05T10:52:02;33.50;91.00
15386;DHT22;7791;47.246;9.648;2022-07-05T10:57:34;31.60;94.00
15386;DHT22;7791;47.246;9.648;2022-07-05T11:00:07;31.00;93.60
15386;DHT22;7791;47.246;9.648;2022-07-05T11:02:33;31.00;93.40
15386;DHT22;7791;47.246;9.648;2022-07-05T11:05:00;31.30;94.10
15386;DHT22;7791;47.246;9.648;2022-07-05T11:07:57;31.30;92.30
15386;DHT22;7791;47.246;9.648;2022-07-05T11:10:24;30.70;93.20
15386;DHT22;7791;47.246;9.648;2022-07-05T11:12:52;31.50;92.30
15386;DHT22;7791;47.246;9.648;2022-07-05T11:15:18;33.70;88.90
15386;DHT22;7791;47.246;9.648;2022-07-05T11:17:44;34.40;88.10
15386;DHT22;7791;47.246;9.648;2022-07-05T11:20:15;32.90;86.90
15386;DHT22;7791;47.246;9.648;2022-07-05T11:23:01;32.70;89.60
15386;DHT22;7791;47.246;9.648;2022-07-05T11:25:29;32.50;88.00
15386;DHT22;7791;47.246;9.648;2022-07-05T11:28:12;31.30;84.30
15386;DHT22;7791;47.246;9.648;2022-07-05T11:30:52;30.90;88.70
15386;DHT22;7791;47.246;9.648;2022-07-05T11:33:38;30.80;88.70
15386;DHT22;7791;47.246;9.648;2022-07-05T11:36:06;31.10;89.50
15386;DHT22;7791;47.246;9.648;2022-07-05T11:38:33;31.80;87.00
15386;DHT22;7791;47.246;9.648;2022-07-05T11:41:12;30.90;90.10
15386;DHT22;7791;47.246;9.648;2022-07-05T11:43:40;32.20;85.70
15386;DHT22;7791;47.246;9.648;2022-07-05T11:46:06;33.40;85.30
15386;DHT22;7791;47.246;9.648;2022-07-05T11:48:32;33.20;82.70
15386;DHT22;7791;47.246;9.648;2022-07-05T11:50:59;31.80;85.70
15386;DHT22;7791;47.246;9.648;2022-07-05T11:53:37;32.00;83.10
15386;DHT22;7791;47.246;9.648;2022-07-05T11:56:05;32.20;85.00
15386;DHT22;7791;47.246;9.648;2022-07-05T11:58:31;33.70;79.80
15386;DHT22;7791;47.246;9.648;2022-07-05T12:00:59;34.20;76.30
15386;DHT22;7791;47.246;9.648;2022-07-05T12:03:25;33.90;78.30
15386;DHT22;7791;47.246;9.648;2022-07-05T12:05:52;32.30;76.60
15386;DHT22;7791;47.246;9.648;2022-07-05T12:08:21;32.40;81.30
15386;DHT22;7791;47.246;9.648;2022-07-05T12:10:52;31.50;84.50
15386;DHT22;7791;47.246;9.648;2022-07-05T12:13:19;31.50;83.30
15386;DHT22;7791;47.246;9.648;2022-07-05T12:15:45;32.00;82.70
15386;DHT22;7791;47.246;9.648;2022-07-05T12:18:13;32.10;81.60
15386;DHT22;7791;47.246;9.648;2022-07-05T12:20:39;32.40;80.50
15386;DHT22;7791;47.246;9.648;2022-07-05T12:23:06;32.70;81.90
15386;DHT22;7791;47.246;9.648;2022-07-05T12:25:34;32.90;83.70
15386;DHT22;7791;47.246;9.648;2022-07-05T12:28:01;32.20;81.40
15386;DHT22;7791;47.246;9.648;2022-07-05T12:30:28;32.00;85.80
15386;DHT22;7791;47.246;9.648;2022-07-05T12:32:58;32.10;88.30
15386;DHT22;7791;47.246;9.648;2022-07-05T12:35:34;32.50;82.00
15386;DHT22;7791;47.246;9.648;2022-07-05T12:38:08;31.80;83.40
15386;DHT22;7791;47.246;9.648;2022-07-05T12:40:35;31.70;83.50
15386;DHT22;7791;47.246;9.648;2022-07-05T12:43:09;32.20;85.30
15386;DHT22;7791;47.246;9.648;2022-07-05T12:45:36;31.60;82.70
15386;DHT22;7791;47.246;9.648;2022-07-05T12:48:04;33.00;82.10
15386;DHT22;7791;47.246;9.648;2022-07-05T12:50:46;32.90;82.60
15386;DHT22;7791;47.246;9.648;2022-07-05T12:53:13;32.00;82.00
15386;DHT22;7791;47.246;9.648;2022-07-05T12:55:40;32.80;79.20
15386;DHT22;7791;47.246;9.648;2022-07-05T12:58:06;33.50;79.70
15386;DHT22;7791;47.246;9.648;2022-07-05T13:00:32;32.70;83.90
15386;DHT22;7791;47.246;9.648;2022-07-05T13:02:58;32.20;83.20
15386;DHT22;7791;47.246;9.648;2022-07-05T13:05:25;31.90;80.90
15386;DHT22;7791;47.246;9.648;2022-07-05T13:07:53;31.50;80.80
15386;DHT22;7791;47.246;9.648;2022-07-05T13:10:20;32.80;79.40
15386;DHT22;7791;47.246;9.648;2022-07-05T13:12:48;34.00;78.60
15386;DHT22;7791;47.246;9.648;2022-07-05T13:15:17;33.40;78.80
15386;DHT22;7791;47.246;9.648;2022-07-05T13:17:44;33.40;77.50
15386;DHT22;7791;47.246;9.648;2022-07-05T13:20:13;32.60;80.50
15386;DHT22;7791;47.246;9.648;2022-07-05T13:22:39;32.40;78.50
15386;DHT22;7791;47.246;9.648;2022-07-05T13:25:07;32.20;77.90
15386;DHT22;7791;47.246;9.648;2022-07-05T13:27:33;31.10;80.00
15386;DHT22;7791;47.246;9.648;2022-07-05T13:29:59;30.10;79.80
15386;DHT22;7791;47.246;9.648;2022-07-05T13:32:25;29.40;83.70
15386;DHT22;7791;47.246;9.648;2022-07-05T13:34:51;29.10;85.10
15386;DHT22;7791;47.246;9.648;2022-07-05T13:37:17;28.90;89.30
15386;DHT22;7791;47.246;9.648;2022-07-05T13:39:42;28.80;83.10
15386;DHT22;7791;47.246;9.648;2022-07-05T13:48:16;27.90;87.60
15386;DHT22;7791;47.246;9.648;2022-07-05T13:50:42;27.70;89.40
15386;DHT22;7791;47.246;9.648;2022-07-05T13:53:08;27.70;87.40
15386;DHT22;7791;47.246;9.648;2022-07-05T13:55:40;28.20;86.50
15386;DHT22;7791;47.246;9.648;2022-07-05T13:58:07;29.30;87.00
15386;DHT22;7791;47.246;9.648;2022-07-05T14:00:32;30.90;82.10
15386;DHT22;7791;47.246;9.648;2022-07-05T14:02:58;32.00;77.60
15386;DHT22;7791;47.246;9.648;2022-07-05T14:05:25;31.90;73.70
15386;DHT22;7791;47.246;9.648;2022-07-05T14:07:55;31.70;75.10
15386;DHT22;7791;47.246;9.648;2022-07-05T14:10:23;31.80;76.70
15386;DHT22;7791;47.246;9.648;2022-07-05T14:13:05;31.30;78.70
15386;DHT22;7791;47.246;9.648;2022-07-05T14:15:31;30.80;78.60
15386;DHT22;7791;47.246;9.648;2022-07-05T14:17:57;30.90;77.90
15386;DHT22;7791;47.246;9.648;2022-07-05T14:20:26;31.00;78.40
15386;DHT22;7791;47.246;9.648;2022-07-05T14:22:55;31.00;76.80
15386;DHT22;7791;47.246;9.648;2022-07-05T14:25:25;31.00;75.70
15386;DHT22;7791;47.246;9.648;2022-07-05T14:27:52;31.50;80.00
15386;DHT22;7791;47.246;9.648;2022-07-05T14:30:19;32.50;75.90
15386;DHT22;7791;47.246;9.648;2022-07-05T14:32:54;33.20;75.40
15386;DHT22;7791;47.246;9.648;2022-07-05T14:35:23;34.10;73.50
15386;DHT22;7791;47.246;9.648;2022-07-05T14:37:51;34.40;72.30
15386;DHT22;7791;47.246;9.648;2022-07-05T14:40:19;34.90;71.00
15386;DHT22;7791;47.246;9.648;2022-07-05T14:43:03;34.70;69.50
15386;DHT22;7791;47.246;9.648;2022-07-05T14:45:31;33.40;69.40
15386;DHT22;7791;47.246;9.648;2022-07-05T14:47:59;32.30;70.50
15386;DHT22;7791;47.246;9.648;2022-07-05T14:50:26;31.90;71.30
15386;DHT22;7791;47.246;9.648;2022-07-05T14:52:54;32.50;71.60
15386;DHT22;7791;47.246;9.648;2022-07-05T14:55:21;31.70;69.50
15386;DHT22;7791;47.246;9.648;2022-07-05T15:01:18;31.00;69.80
15386;DHT22;7791;47.246;9.648;2022-07-05T15:03:44;31.10;72.90
15386;DHT22;7791;47.246;9.648;2022-07-05T15:06:10;30.90;75.30
15386;DHT22;7791;47.246;9.648;2022-07-05T15:08:39;31.50;76.20
15386;DHT22;7791;47.246;9.648;2022-07-05T15:11:07;31.30;75.70
15386;DHT22;7791;47.246;9.648;2022-07-05T15:13:33;30.90;77.40
15386;DHT22;7791;47.246;9.648;2022-07-05T15:16:04;31.50;72.30
15386;DHT22;7791;47.246;9.648;2022-07-05T15:18:30;31.60;70.90
15386;DHT22;7791;47.246;9.648;2022-07-05T15:20:57;31.30;77.20
15386;DHT22;7791;47.246;9.648;2022-07-05T15:23:24;31.00;74.80
15386;DHT22;7791;47.246;9.648;2022-07-05T15:25:55;30.40;79.50
15386;DHT22;7791;47.246;9.648;2022-07-05T15:28:22;30.20;78.40
15386;DHT22;7791;47.246;9.648;2022-07-05T15:30:47;29.80;76.80
15386;DHT22;7791;47.246;9.648;2022-07-05T15:33:14;30.30;77.10
15386;DHT22;7791;47.246;9.648;2022-07-05T15:35:42;30.60;75.20
15386;DHT22;7791;47.246;9.648;2022-07-05T15:38:07;30.80;76.30
15386;DHT22;7791;47.246;9.648;2022-07-05T15:40:34;30.70;74.80
15386;DHT22;7791;47.246;9.648;2022-07-05T15:43:25;30.50;75.90
15386;DHT22;7791;47.246;9.648;2022-07-05T15:45:51;30.70;76.70
15386;DHT22;7791;47.246;9.648;2022-07-05T15:48:17;31.10;76.60
15386;DHT22;7791;47.246;9.648;2022-07-05T15:50:43;31.10;76.50
15386;DHT22;7791;47.246;9.648;2022-07-05T15:53:11;31.10;73.10
15386;DHT22;7791;47.246;9.648;2022-07-05T15:55:37;31.00;77.50
15386;DHT22;7791;47.246;9.648;2022-07-05T16:01:12;30.30;74.90
15386;DHT22;7791;47.246;9.648;2022-07-05T16:03:39;30.30;78.70
15386;DHT22;7791;47.246;9.648;2022-07-05T16:06:07;30.40;76.00
15386;DHT22;7791;47.246;9.648;2022-07-05T16:08:33;30.20;82.20
15386;DHT22;7791;47.246;9.648;2022-07-05T16:11:00;30.10;77.20
15386;DHT22;7791;47.246;9.648;2022-07-05T16:13:26;29.70;79.60
15386;DHT22;7791;47.246;9.648;2022-07-05T16:15:54;29.10;77.50
15386;DHT22;7791;47.246;9.648;2022-07-05T16:18:22;28.60;76.90
15386;DHT22;7791;47.246;9.648;2022-07-05T16:20:49;28.70;79.50
15386;DHT22;7791;47.246;9.648;2022-07-05T16:23:17;29.00;80.00
15386;DHT22;7791;47.246;9.648;2022-07-05T16:25:44;29.20;79.50
15386;DHT22;7791;47.246;9.648;2022-07-05T16:28:12;29.50;76.00
15386;DHT22;7791;47.246;9.648;2022-07-05T16:36:52;29.20;78.60
15386;DHT22;7791;47.246;9.648;2022-07-05T16:39:18;29.10;80.60
15386;DHT22;7791;47.246;9.648;2022-07-05T16:41:44;29.00;82.00